Weather observations for the past three days for
Lago Vista TX, Rusty Allen Airport
Imperial (Metric)
Date Time (cdt) Wind (mph) Vis. (mi.) Weather Sky Cond. Temperature (ºF) Relative Humidity Wind Chill (°F) Heat Index (°F) Pressure Precipitation (in)
Air Dwpt 6 hour altimeter (in) sea level (mb) 1 hr 3 hr 6 hr
Max. Min.
05 17:55 SE 5 10.00 Fair CLR 96.1 61.3 32% 97 29.91 0.0
05 17:35 SE 3 10.00 Partly Cloudy SCT070 94.6 62.1 34% 95 29.9 0.0
05 17:15 E 6 10.00 Partly Cloudy SCT070 96.4 62.2 32% 98 29.91 0.0
05 16:55 SE 6 10.00 Partly Cloudy SCT070 96.3 62.2 32% 97 29.91 0.0
05 16:35 S 6 10.00 Partly Cloudy SCT070 95.9 62.6 33% 97 29.91 0.0
05 16:15 Calm 10.00 Fair CLR 94.5 62.1 34% 95 29.92 0.0
05 15:55 S 5 10.00 Fair CLR 96.4 62.1 32% 97 29.93 0.0
05 15:35 E 10 G 16 10.00 Fair CLR 97.3 62.6 32% 99 29.94 0.0
05 15:15 Calm 10.00 Fair CLR 94.3 60.4 32% 94 29.94 0.0
05 14:55 Calm 10.00 Fair CLR 93.7 61.9 35% 94 29.96 0.0
05 12:55 SE 3 10.00 Fair CLR 91.2 67.5 91.2 75.6 46% 95 30.01 0.0
05 12:35 Calm 10.00 Fair CLR 90.5 67.6 47% 94 30.02 0.0
05 12:15 SE 8 10.00 Fair CLR 90.5 68.7 49% 95 30.03 0.0
05 11:55 SE 6 10.00 Partly Cloudy SCT038 89.6 67.8 49% 93 30.03 0.0
05 11:35 S 5 10.00 Partly Cloudy SCT036 88 69.4 54% 93 30.03 0.0
05 11:15 S 8 10.00 Partly Cloudy SCT030 SCT035 86.9 69.1 55% 91 30.03 0.0
05 10:55 S 7 10.00 Partly Cloudy SCT028 85.8 70.5 60% 91 30.03 0.0
05 10:35 S 8 10.00 Partly Cloudy SCT017 SCT023 85.1 72.3 66% 91 30.03 0.0
05 10:15 SW 5 10.00 Partly Cloudy SCT017 83.7 73.9 73% 91 30.04 0.0
05 09:55 S 6 10.00 Partly Cloudy SCT015 81.5 74.7 80% 88 30.03 0.0
05 09:35 SW 3 10.00 Partly Cloudy SCT013 81 75 82% 87 30.03 0.0
05 09:15 S 3 10.00 Partly Cloudy SCT008 79.9 76.1 88% 85 30.03 0.0
05 08:55 Calm 10.00 Partly Cloudy SCT004 78.8 77 94% 83 30.02 0.0
05 08:35 S 5 10.00 Partly Cloudy SCT004 77.9 77.4 98% 80 30.02 0.0
05 08:15 S 3 10.00 Partly Cloudy SCT004 77.2 77.2 100% 78 30.01 0.0
05 07:55 Calm 10.00 Partly Cloudy SCT007 76.1 76.1 100% 75 30.01 0.0
05 07:35 S 3 10.00 Mostly Cloudy BKN007 75.7 75.7 100% 74 30 0.0
05 07:15 Calm 10.00 Partly Cloudy SCT007 75.6 75.6 100% 74 30 0.0
05 06:55 S 3 10.00 Fair CLR 75.7 75.7 79.5 75.7 100% 74 30 0.0
05 06:35 S 3 10.00 Fair CLR 76.1 76.1 100% 75 29.99 0.0
05 06:15 S 5 10.00 Fair CLR 76.3 76.1 99% 76 29.99 0.0
05 05:55 S 3 10.00 Fair CLR 76.1 76.1 100% 75 29.98 0.0
05 05:35 Calm 10.00 Partly Cloudy SCT011 76.1 76.1 100% 75 29.98 0.0
05 05:15 Calm 10.00 Mostly Cloudy BKN011 76.5 76.1 99% 76 29.99 0.0
05 04:55 Calm 10.00 Partly Cloudy SCT011 76.5 76.1 99% 76 29.98 0.0
05 04:35 S 3 10.00 Fair CLR 76.6 75.9 98% 77 29.98 0.0
05 04:15 S 3 10.00 Fair CLR 76.8 75.9 97% 77 29.98 0.0
05 03:55 S 5 10.00 Fair CLR 77 75.7 96% 78 29.99 0.0
05 03:35 S 5 10.00 Fair CLR 77.2 75.4 94% 78 29.99 0.0
05 03:15 S 7 10.00 Fair CLR 77.4 75.2 93% 79 29.99 0.0
05 02:55 S 5 10.00 Fair CLR 77.9 74.5 89% 80 29.99 0.0
05 02:35 S 6 7.00 Fair CLR 77.9 74.3 89% 80 30 0.0
05 02:15 S 5 10.00 Fair CLR 78.1 73.9 87% 81 30 0.0
05 01:55 S 5 10.00 Partly Cloudy SCT015 78.3 73.6 86% 81 30 0.0
05 01:35 S 3 10.00 Partly Cloudy SCT015 78.8 73.4 84% 82 30 0.0
05 01:15 S 6 10.00 Fair CLR 79 72.9 82% 82 30.01 0.0
04 00:55 S 9 10.00 Fair CLR 78.4 72.1 87.6 78.4 81% 81 29.99 0.0
04 00:35 S 8 10.00 Fair CLR 78.6 72.1 81% 81 29.98 0.0
04 00:15 S 7 10.00 Fair CLR 78.8 72 80% 82 29.97 0.0
03 23:55 S 6 10.00 Fair CLR 79 71.6 78% 82 29.97 0.0
03 23:35 SE 10 G 17 10.00 Fair CLR 79.2 71.6 78% 82 29.97 0.0
03 23:15 SE 5 10.00 Fair CLR 79.7 71.6 76% 83 29.97 0.0
03 22:55 SE 8 10.00 Fair CLR 79.7 71.1 75% 83 29.97 0.0
03 22:35 SE 9 G 16 10.00 Fair CLR 79.9 70.9 74% 83 29.96 0.0
03 22:15 SE 10 G 17 10.00 Fair CLR 80.2 70.3 72% 84 29.96 0.0
03 21:55 SE 8 G 17 10.00 Fair CLR 81 70 69% 84 29.96 0.0
03 21:35 SE 12 G 17 10.00 Fair CLR 81.5 69.8 68% 85 29.95 0.0
03 21:15 SE 9 10.00 Fair CLR 82 69.8 67% 86 29.94 0.0
03 20:55 SE 8 10.00 Fair CLR 82.8 69.8 65% 87 29.94 0.0
03 20:35 SE 8 10.00 Fair CLR 83.3 69.6 63% 87 29.94 0.0
03 20:15 SE 9 G 16 10.00 Fair CLR 84.2 70 62% 89 29.93 0.0
03 19:55 SE 7 G 20 10.00 Fair CLR 84.6 69.8 61% 89 29.92 0.0
03 19:35 SE 8 G 16 10.00 Fair CLR 85.5 70.7 61% 91 29.92 0.0
03 19:15 SE 13 G 21 10.00 Fair CLR 86.9 71.2 60% 93 29.93 0.0
03 18:55 SE 9 G 20 10.00 Fair CLR 87.8 71.6 99.5 87.8 59% 94 29.92 0.0
03 18:35 E 12 G 24 10.00 Fair CLR 89.6 72 56% 97 29.91 0.0
03 18:15 SE 15 G 20 10.00 Fair CLR 91.6 69.4 48% 97 29.9 0.0
03 17:55 SE 12 G 23 10.00 Fair CLR 93.9 68.9 44% 99 29.89 0.0
03 17:35 SE 14 G 20 10.00 Fair CLR 93.4 69.4 46% 99 29.89 0.0
03 17:15 SE 12 G 23 10.00 Partly Cloudy SCT060 SCT085 95.5 68.7 42% 101 29.89 0.0
03 16:55 SE 12 G 17 10.00 Mostly Cloudy SCT065 BKN085 98.4 68.7 38% 104 29.89 0.0
03 16:35 SE 12 10.00 Partly Cloudy SCT065 96.1 68.2 40% 101 29.89 0.0
03 16:15 E 8 10.00 Fair CLR 96.1 67.8 40% 101 29.89 0.0
03 15:55 SE 8 G 16 10.00 Fair CLR 99 67.3 36% 104 29.9 0.0
03 15:35 SE 3 10.00 Fair CLR 96.8 66.4 37% 101 29.91 0.0
03 15:15 S 3 10.00 Fair CLR 99 67.5 36% 104 29.92 0.0
03 14:55 SE 9 10.00 Fair CLR 97.9 68.5 39% 104 29.93 0.0
03 14:35 SE 7 10.00 Fair CLR 97.5 68.7 39% 103 29.94 0.0
03 14:15 NE 3 10.00 Partly Cloudy SCT095 97 68.7 40% 103 29.94 0.0
03 13:55 SE 7 10.00 Mostly Cloudy BKN095 99.1 67.5 36% 104 29.96 0.0
03 13:35 S 7 10.00 Fair CLR 96.3 67.3 39% 101 29.96 0.0
03 13:15 SE 5 10.00 Partly Cloudy SCT095 93.4 67.3 42% 97 29.97 0.0
03 12:55 SW 5 10.00 Fair CLR 94.3 67.5 94.8 77.9 42% 98 29.98 0.0
03 12:35 SW 9 10.00 Fair CLR 93 67.3 43% 97 29.98 0.0
03 12:15 S 12 G 16 10.00 Fair CLR 92.7 67.5 44% 97 29.99 0.0
03 11:55 S 8 10.00 Fair CLR 91.9 69.1 47% 97 29.99 0.0
03 11:35 SW 10 G 16 10.00 Fair CLR 90.5 69.1 49% 95 30 0.0
03 11:15 SW 8 10.00 Fair CLR 89.1 70.2 54% 94 29.99 0.0
03 10:55 S 9 G 16 10.00 Fair CLR 87.6 70.5 57% 93 29.99 0.0
03 10:35 S 9 10.00 Fair CLR 86.2 71.2 61% 92 29.99 0.0
03 10:15 SW 12 10.00 Fair CLR 85.8 71.6 63% 92 29.99 0.0
03 09:55 S 8 10.00 Partly Cloudy SCT019 84 72.5 68% 90 29.99 0.0
03 09:35 SW 8 10.00 Partly Cloudy SCT019 83.3 72.7 70% 89 29.99 0.0
03 09:15 SW 13 G 18 10.00 Partly Cloudy SCT017 82.2 73.4 75% 88 29.99 0.0
03 08:55 SW 10 G 16 10.00 Mostly Cloudy BKN015 80.6 73.9 80% 86 29.99 0.0
03 08:35 SW 12 10.00 Mostly Cloudy BKN015 80.2 74.5 83% 85 29.99 0.0
03 08:15 SW 9 10.00 Mostly Cloudy BKN015 79.7 75 86% 84 30 0.0
03 07:55 S 9 10.00 Overcast OVC015 78.8 75.2 89% 82 29.99 0.0
03 07:35 S 7 10.00 Overcast OVC015 78.3 75.2 90% 81 29.99 0.0
03 07:15 S 8 10.00 Overcast OVC015 78.1 75.6 92% 81 29.99 0.0
03 06:55 S 9 10.00 Overcast OVC015 77.9 75.7 81.5 77.9 93% 80 29.98 0.0
03 06:35 S 8 10.00 Overcast OVC013 77.9 76.1 94% 80 29.98 0.0
03 06:15 S 7 10.00 Overcast OVC011 77.9 76.1 94% 80 29.97 0.0
03 05:55 S 7 10.00 Overcast OVC011 77.9 76.1 94% 80 29.97 0.0
03 04:55 S 7 10.00 Overcast OVC013 77.9 75.4 92% 80 29.97 0.0
03 04:35 S 6 10.00 Overcast OVC013 77.9 74.8 90% 80 29.97 0.0
03 03:55 S 7 10.00 Mostly Cloudy BKN013 78.1 74.3 88% 81 29.98 0.0
03 03:35 S 9 10.00 Mostly Cloudy BKN015 78.3 73.9 87% 81 29.98 0.0
03 03:15 S 8 10.00 Partly Cloudy SCT015 78.8 73.6 84% 82 29.98 0.0
03 02:55 S 8 10.00 Fair CLR 78.8 72.9 82% 82 29.98 0.0
03 02:35 S 8 10.00 Fair CLR 79.3 72.5 80% 83 29.98 0.0
03 02:15 S 12 G 16 10.00 Fair CLR 79.7 71.6 76% 83 29.98 0.0
03 01:55 S 7 G 16 10.00 Fair CLR 80.2 70.9 73% 84 29.99 0.0
03 01:35 S 7 10.00 Fair CLR 80.6 70.3 71% 84 29.99 0.0
03 01:15 S 7 10.00 Fair CLR 81 70.2 70% 85 29.99 0.0
03 00:55 S 7 10.00 Fair CLR 81.5 69.8 94.5 81.5 68% 85 29.99 0.0
03 00:35 SE 7 G 18 10.00 Fair CLR 82.2 69.1 65% 86 29.99 0.0
03 00:15 SE 9 10.00 Fair CLR 81.7 69.1 66% 85 29.99 0.0
02 23:55 SE 9 10.00 Fair CLR 81.7 69.3 66% 85 29.98 0.0
02 23:35 E 7 10.00 Fair CLR 81.5 69.1 66% 85 29.98 0.0
02 23:15 E 9 10.00 Fair CLR 82 68.7 64% 85 29.98 0.0
02 22:55 E 10 G 17 10.00 Partly Cloudy SCT095 83.5 68.2 60% 87 29.98 0.0
02 22:35 E 8 10.00 Partly Cloudy SCT095 85.3 67.1 55% 88 29.97 0.0
02 22:15 E 8 10.00 Fair CLR 86 66.6 52% 89 29.96 0.0
02 21:55 E 6 10.00 Fair CLR 86 66.4 52% 88 29.96 0.0
02 21:35 E 3 10.00 Partly Cloudy SCT120 86 66.2 52% 88 29.95 0.0
02 21:15 E 3 10.00 Partly Cloudy SCT120 86.4 66.2 51% 89 29.94 0.0
02 20:55 E 3 10.00 Fair CLR 87.4 65.8 49% 90 29.94 0.0
02 20:35 E 3 10.00 Partly Cloudy SCT120 87.8 66.4 49% 90 29.93 0.0
02 20:15 E 3 10.00 Partly Cloudy SCT120 89.1 66.4 47% 92 29.93 0.0
02 19:55 E 5 10.00 Mostly Cloudy BKN110 90.3 66.4 45% 93 29.93 0.0
02 19:35 E 5 10.00 Overcast OVC110 91.8 65.7 42% 94 29.93 0.0
02 19:15 E 3 10.00 Mostly Cloudy BKN110 93.2 65.3 40% 96 29.93 0.0
02 18:55 Calm 10.00 Overcast OVC100 94.6 64.8 98.6 94.1 37% 97 29.92 0.0
02 18:35 Calm 10.00 Mostly Cloudy BKN100 95 64 36% 97 29.92 0.0
Date Time (cdt) Wind (mph) Vis. (mi.) Weather Sky Cond. Air Dwpt Max. Min. Relative Humidity Wind Chill (°F) Heat Index (°F) altimeter (in) sea level (mb) 1 hr 3 hr 6 hr
6 hour
Temperature (ºF) Pressure Precipitation (in)